Latest Weather Observations for Edinburgh

IDS60801

Issued at 6:31 pm CST Monday 6 July 2015 (issued every 30 minutes, with the page automatically refreshed every 10 minutes)

About weather observations | Map of weather stations | Latest weather observations for SA | Other Formats
Station Details ID: 023083 Name: EDINBURGH RAAF Lat: -34.71 Lon: 138.62 Height: 16.54 m
Data from the previous 72 hours. | See also: Recent months at Edinburgh
Date/Time
CST
Temp
°C
App
Temp
°C
Dew
Point
Rel
Hum
%
Delta-T
°C
Wind Press
QNH
hPa
Press
MSL
hPa
Rain
since 9 am
mm
Dir
 
Spd
km/h
Gust
km/h
Spd
kts
Gust
kts
06/06:30pm 9.6 7.9 8.2 91 0.7 WSW 7 11 4 6 1018.5 1018.5 4.0
06/06:00pm 10.4 8.4 8.8 90 0.8 W 9 9 5 5 1018.2 1018.2 4.0
06/05:30pm 11.4 9.4 10.0 91 0.7 WSW 11 15 6 8 1017.9 1017.9 4.0
06/05:00pm 12.1 9.4 10.3 89 0.9 WSW 15 20 8 11 1017.7 1017.7 4.0
06/04:30pm 12.2 8.4 9.9 86 1.2 W 20 24 11 13 1017.3 1017.3 3.8
06/04:00pm 12.3 8.0 10.7 90 0.8 W 24 30 13 16 1017.2 1017.2 3.8
06/03:30pm 12.1 8.5 10.5 90 0.8 WSW 20 30 11 16 1017.1 1017.1 3.6
06/03:22pm 12.2 8.8 10.4 89 0.9 WSW 19 26 10 14 1017.0 1017.0 3.4
06/03:00pm 12.4 9.0 10.6 89 0.9 SW 19 26 10 14 1016.8 1016.8 2.2
06/02:51pm 12.7 8.7 10.4 86 1.2 SW 22 30 12 16 1016.8 1016.8 0.8
06/02:30pm 14.9 9.5 9.5 70 2.8 W 28 39 15 21 1016.5 1016.5 0.0
06/02:00pm 14.9 8.5 8.4 65 3.3 W 32 37 17 20 1016.7 1016.7 0.0
06/01:30pm 15.3 9.3 8.8 65 3.3 W 30 37 16 20 1016.8 1016.8 0.0
06/01:00pm 14.3 7.8 8.0 66 3.1 W 32 41 17 22 1016.9 1016.9 0.0
06/12:30pm 14.3 7.4 8.7 69 2.8 W 35 43 19 23 1017.0 1017.0 0.0
06/12:00pm 15.0 8.6 9.4 69 2.9 W 33 43 18 23 1017.3 1017.3 0.0
06/11:30am 15.2 9.6 8.9 66 3.2 W 28 37 15 20 1017.5 1017.5 0.0
06/11:00am 14.5 8.4 9.7 73 2.5 W 32 39 17 21 1017.5 1017.5 0.0
06/10:30am 14.2 10.6 10.0 76 2.2 NW 19 26 10 14 1017.6 1017.6 0.0
06/10:00am 13.5 10.2 9.7 78 1.9 NNW 17 22 9 12 1017.5 1017.5 0.0
06/09:30am 12.0 8.1 8.7 80 1.6 NNW 19 24 10 13 1017.4 1017.4 0.0
06/09:00am 10.8 7.0 7.7 81 1.5 NNW 17 22 9 12 1017.0 1017.0 0.2
06/08:30am 9.7 5.8 7.0 83 1.3 NNW 17 22 9 12 1016.7 1016.7 0.2
06/08:00am 9.4 5.4 6.7 83 1.3 NNW 17 20 9 11 1016.4 1016.4 0.2
06/07:30am 9.2 5.6 6.6 84 1.2 NNW 15 17 8 9 1016.1 1016.1 0.2
06/07:00am 9.4 5.0 6.7 83 1.3 NNW 19 24 10 13 1016.0 1016.0 0.2
06/06:30am 9.7 6.1 6.6 81 1.4 NNW 15 19 8 10 1016.0 1016.0 0.2
06/06:00am 10.1 7.9 6.1 76 1.8 NNE 7 13 4 7 1015.9 1015.9 0.2
06/05:30am 10.5 5.7 5.5 71 2.3 NNW 20 26 11 14 1015.5 1015.5 0.0
06/05:00am 10.2 6.7 5.4 72 2.2 N 13 20 7 11 1015.5 1015.5 0.0
06/04:30am 10.6 7.9 5.4 70 2.4 N 9 13 5 7 1015.6 1015.6 0.0
06/04:00am 11.3 8.5 5.2 66 2.8 NNW 9 15 5 8 1016.0 1016.0 0.0
06/03:30am 11.4 8.5 4.8 64 3.0 NW 9 15 5 8 1016.0 1016.0 0.0
06/03:00am 11.6 6.8 4.8 63 3.1 NW 19 26 10 14 1016.1 1016.1 0.0
06/02:30am 11.6 6.4 5.3 65 2.9 NNW 22 32 12 17 1015.6 1015.6 0.0
06/02:00am 11.9 6.3 5.3 64 3.0 NNW 24 33 13 18 1015.7 1015.7 0.0
06/01:30am 12.6 7.5 4.3 57 3.8 N 20 26 11 14 1015.6 1015.6 0.0
06/01:00am 12.8 8.0 4.5 57 3.8 N 19 26 10 14 1016.1 1016.1 0.0
06/12:30am 12.2 7.8 4.9 61 3.3 NNE 17 22 9 12 1016.1 1016.1 0.0
06/12:00am 11.8 7.9 5.2 64 3.0 NE 15 19 8 10 1016.7 1016.7 0.0
 
Date/Time
CST
Temp
°C
App
Temp
°C
Dew
Point
Rel
Hum
%
Delta-T
°C
Wind Press
QNH
hPa
Press
MSL
hPa
Rain
since 9 am
mm
Dir
 
Spd
km/h
Gust
km/h
Spd
kts
Gust
kts
05/11:30pm 11.7 7.8 5.3 65 2.9 NNE 15 19 8 10 1016.8 1016.8 0.0
05/11:00pm 11.8 7.5 5.4 65 3.0 NNE 17 20 9 11 1016.9 1016.9 0.0
05/10:30pm 11.5 7.3 5.6 67 2.7 NE 17 20 9 11 1017.2 1017.2 0.0
05/10:00pm 11.5 7.4 6.0 69 2.6 NE 17 19 9 10 1017.2 1017.2 0.0
05/09:30pm 11.5 7.0 6.0 69 2.6 NNE 19 22 10 12 1017.4 1017.4 0.0
05/09:00pm 12.3 7.9 5.0 61 3.4 N 17 19 9 10 1017.6 1017.6 0.0
05/08:30pm 12.3 8.3 5.0 61 3.4 NE 15 19 8 10 1017.5 1017.5 0.0
05/08:00pm 12.3 8.3 5.0 61 3.4 NNE 15 19 8 10 1017.6 1017.6 0.0
05/07:30pm 12.2 8.2 5.1 62 3.3 NE 15 17 8 9 1017.6 1017.6 0.0
05/07:00pm 12.1 8.9 5.3 63 3.1 NE 11 15 6 8 1017.6 1017.6 0.0
05/06:30pm 11.9 8.7 5.1 63 3.1 NNE 11 13 6 7 1017.4 1017.4 0.0
05/06:00pm 12.3 8.7 4.8 60 3.4 NNE 13 17 7 9 1017.3 1017.3 0.0
05/05:30pm 12.9 9.4 5.3 60 3.5 N 13 15 7 8 1017.2 1017.2 0.0
05/05:00pm 13.1 9.4 4.3 55 4.0 NNW 13 19 7 10 1017.3 1017.3 0.0
05/04:30pm 16.0 12.0 4.7 47 5.3 NNW 15 22 8 12 1017.4 1017.4 0.0
05/04:00pm 16.9 12.0 3.9 42 6.1 NW 19 24 10 13 1017.4 1017.4 0.0
05/03:30pm 17.3 11.5 4.3 42 6.1 NNW 24 33 13 18 1017.5 1017.5 0.0
05/03:00pm 17.3 11.5 4.3 42 6.1 NW 24 30 13 16 1017.7 1017.7 0.0
05/02:30pm 17.5 12.2 5.1 44 5.9 NW 22 30 12 16 1017.9 1017.9 0.0
05/02:00pm 17.4 12.0 4.4 42 6.1 NW 22 28 12 15 1018.1 1018.1 0.0
05/01:30pm 17.2 12.6 5.5 46 5.6 NW 19 24 10 13 1018.3 1018.3 0.0
05/01:00pm 16.8 11.6 5.4 47 5.5 NNW 22 30 12 16 1018.9 1018.9 0.0
05/12:30pm 16.5 11.9 5.8 49 5.2 NNW 19 26 10 14 1019.4 1019.4 0.0
05/12:00pm 15.8 10.9 5.1 49 5.1 NNW 20 26 11 14 1019.9 1019.9 0.0
05/11:30am 15.5 11.0 6.0 53 4.6 NNW 19 24 10 13 1020.3 1020.3 0.0
05/11:00am 14.5 10.5 6.8 60 3.7 N 17 22 9 12 1020.8 1020.8 0.0
05/10:30am 13.0 9.0 6.6 65 3.1 N 17 20 9 11 1021.1 1021.1 0.0
05/10:00am 12.4 8.7 6.2 66 2.9 NNE 15 20 8 11 1021.2 1021.2 0.0
05/09:30am 11.3 7.1 5.8 69 2.5 NNE 17 19 9 10 1021.3 1021.3 0.0
05/09:00am 10.5 6.3 5.7 72 2.2 NNE 17 20 9 11 1021.3 1021.3 0.2
05/08:30am 9.8 5.5 5.4 74 2.0 NNE 17 24 9 13 1021.1 1021.1 0.2
05/08:00am 7.8 4.1 4.7 81 1.4 NE 13 15 7 8 1021.0 1021.0 0.2
05/07:30am 6.8 2.7 4.1 83 1.2 NE 15 17 8 9 1020.8 1020.8 0.2
05/07:00am 7.6 3.9 4.6 81 1.3 ENE 13 17 7 9 1020.7 1020.7 0.2
05/06:30am 6.9 3.5 3.9 81 1.3 NE 11 13 6 7 1020.7 1020.7 0.2
05/06:00am 7.3 4.0 4.4 82 1.3 ENE 11 13 6 7 1020.5 1020.5 0.2
05/05:30am 6.5 2.6 3.5 81 1.3 NE 13 15 7 8 1020.5 1020.5 0.2
05/05:00am 7.0 3.2 4.0 81 1.3 ENE 13 15 7 8 1020.5 1020.5 0.2
05/04:30am 7.0 2.9 4.1 82 1.2 NE 15 17 8 9 1020.5 1020.5 0.2
05/04:00am 7.2 3.5 4.7 84 1.1 ENE 13 17 7 9 1020.5 1020.5 0.2
05/03:30am 6.2 2.7 3.7 84 1.1 NE 11 15 6 8 1020.7 1020.7 0.2
05/03:00am 7.1 3.8 4.4 83 1.2 NE 11 13 6 7 1020.8 1020.8 0.2
05/02:30am 7.3 3.7 5.1 86 1.0 NE 13 17 7 9 1021.0 1021.0 0.2
05/02:00am 7.0 3.8 5.3 89 0.8 NE 11 13 6 7 1020.9 1020.9 0.2
05/01:30am 6.2 2.9 4.7 90 0.6 NE 11 13 6 7 1021.1 1021.1 0.2
05/01:00am 5.7 2.3 4.0 89 0.7 NE 11 13 6 7 1021.2 1021.2 0.2
05/12:30am 6.0 2.7 4.3 89 0.7 NE 11 13 6 7 1021.5 1021.5 0.2
05/12:00am 6.1 2.4 4.4 89 0.7 NE 13 15 7 8 1021.7 1021.7 0.2
 
Date/Time
CST
Temp
°C
App
Temp
°C
Dew
Point
Rel
Hum
%
Delta-T
°C
Wind Press
QNH
hPa
Press
MSL
hPa
Rain
since 9 am
mm
Dir
 
Spd
km/h
Gust
km/h
Spd
kts
Gust
kts
04/11:30pm 6.2 2.9 4.4 88 0.8 ENE 11 13 6 7 1021.9 1021.9 0.2
04/11:00pm 5.9 2.5 4.2 89 0.7 NE 11 13 6 7 1022.0 1022.0 0.2
04/10:30pm 6.1 2.8 4.4 89 0.7 NE 11 11 6 6 1022.0 1022.0 0.2
04/10:00pm 6.5 2.8 4.7 88 0.8 NE 13 15 7 8 1021.9 1021.9 0.2
04/09:30pm 6.3 3.0 4.6 89 0.7 NE 11 13 6 7 1022.0 1022.0 0.2
04/09:00pm 6.2 2.8 4.2 87 0.9 NNE 11 15 6 8 1022.1 1022.1 0.2
04/08:30pm 7.6 5.3 5.6 87 0.9 ENE 7 9 4 5 1022.3 1022.3 0.2
04/08:00pm 8.1 5.8 5.9 86 1.0 E 7 7 4 4 1022.5 1022.5 0.2
04/07:30pm 7.8 5.4 5.4 85 1.1 E 7 7 4 4 1022.3 1022.3 0.2
04/07:00pm 8.6 6.2 5.4 80 1.4 E 7 9 4 5 1022.3 1022.3 0.2
04/06:30pm 11.0 9.1 6.6 74 2.1 ESE 6 9 3 5 1022.3 1022.3 0.2
04/06:00pm 12.0 10.1 6.9 71 2.4 SSE 6 7 3 4 1022.1 1022.1 0.2
04/05:30pm 12.4 10.4 6.9 69 2.6 SSW 7 11 4 6 1021.9 1021.9 0.2
04/05:00pm 14.4 13.0 7.2 62 3.5 SSE 4 6 2 3 1021.8 1021.8 0.2
04/04:30pm 15.0 13.3 7.5 61 3.7 SSE 6 7 3 4 1021.8 1021.8 0.2
04/04:00pm 15.3 13.6 7.6 60 3.8 SSW 6 9 3 5 1021.9 1021.9 0.2
04/03:30pm 15.5 13.3 8.0 61 3.7 SSW 9 13 5 7 1021.9 1021.9 0.2
04/03:00pm 15.1 12.2 8.3 64 3.4 S 13 17 7 9 1022.0 1022.0 0.2
04/02:30pm 15.8 14.1 8.5 62 3.7 SW 7 11 4 6 1022.0 1022.0 0.2
04/02:00pm 15.2 13.4 7.2 59 3.9 W 6 9 3 5 1022.2 1022.2 0.2
04/01:30pm 15.6 13.7 7.6 59 4.0 WSW 7 13 4 7 1022.4 1022.4 0.2
04/01:00pm 15.8 14.2 7.8 59 4.0 SSW 6 9 3 5 1022.9 1022.9 0.2
04/12:30pm 15.6 13.8 8.1 61 3.8 SW 7 13 4 7 1023.5 1023.5 0.0
04/12:00pm 15.5 14.0 7.0 57 4.2 NNW 4 9 2 5 1023.9 1023.9 0.0
04/11:30am 14.2 13.6 7.3 63 3.4 CALM 0 6 0 3 1024.3 1024.3 0.0
04/11:00am 12.4 9.7 5.8 64 3.1 NNE 9 13 5 7 1024.7 1024.7 0.0
04/10:30am 13.0 10.2 7.0 67 2.9 NNE 11 15 6 8 1024.8 1024.8 0.0
04/10:00am 11.0 7.7 6.4 73 2.2 NE 13 17 7 9 1025.0 1025.0 0.0
04/09:30am 9.5 6.6 6.6 82 1.3 NE 11 13 6 7 1025.0 1025.0 0.0
04/09:00am 9.2 6.7 6.6 84 1.2 NE 9 13 5 7 1025.1 1025.1 0.0
04/08:30am 8.3 6.1 6.1 86 1.0 NE 7 7 4 4 1025.0 1025.0 0.0
04/08:00am 7.8 5.5 5.8 87 0.9 NE 7 9 4 5 1025.0 1025.0 0.0
04/07:30am 7.0 4.2 5.0 87 0.9 NE 9 9 5 5 1024.7 1024.7 0.0
04/07:00am 6.4 4.0 4.4 87 0.9 NNE 6 9 3 5 1024.7 1024.7 0.0
04/06:30am 6.8 3.6 5.0 88 0.8 NE 11 13 6 7 1024.2 1024.2 0.0
04/06:00am 7.0 4.2 5.3 89 0.7 NE 9 13 5 7 1024.2 1024.2 0.0
04/05:30am 6.9 4.5 5.2 89 0.7 NE 7 9 4 5 1024.0 1024.0 0.0
04/05:00am 6.4 4.1 4.7 89 0.7 NNE 6 7 3 4 1023.9 1023.9 0.0
04/04:30am 6.2 3.3 4.7 90 0.6 NNE 9 11 5 6 1023.9 1023.9 0.0
04/04:00am 5.8 2.4 4.1 89 0.7 NE 11 11 6 6 1024.0 1024.0 0.0
04/03:30am 5.6 2.6 4.1 90 0.6 ENE 9 9 5 5 1024.1 1024.1 0.0
04/03:00am 4.5 0.9 2.8 89 0.7 NNE 11 13 6 7 1024.4 1024.4 0.0
04/02:30am 4.8 2.0 3.1 89 0.7 NNE 7 9 4 5 1024.4 1024.4 0.0
04/02:00am 5.1 1.9 3.3 88 0.7 NE 9 11 5 6 1024.5 1024.5 0.0
04/01:30am 5.5 2.0 3.7 88 0.8 NE 11 13 6 7 1024.5 1024.5 0.0
04/01:00am 5.1 2.0 3.4 89 0.7 NE 9 11 5 6 1024.7 1024.7 0.0
04/12:30am 5.2 1.7 3.4 88 0.7 NE 11 13 6 7 1024.9 1024.9 0.0
04/12:00am 5.7 2.6 3.7 87 0.8 NE 9 11 5 6 1025.2 1025.2 0.0
 
Date/Time
CST
Temp
°C
App
Temp
°C
Dew
Point
Rel
Hum
%
Delta-T
°C
Wind Press
QNH
hPa
Press
MSL
hPa
Rain
since 9 am
mm
Dir
 
Spd
km/h
Gust
km/h
Spd
kts
Gust
kts
03/11:30pm 6.3 3.3 4.3 87 0.9 NE 9 9 5 5 1025.5 1025.5 0.0
03/11:00pm 6.4 4.4 4.2 86 0.9 NNE 4 7 2 4 1025.6 1025.6 0.0
03/10:30pm 7.0 5.7 4.3 83 1.2 CALM 0 0 0 0 1025.7 1025.7 0.0
03/10:00pm 8.5 6.3 5.1 79 1.5 ENE 6 7 3 4 1025.9 1025.9 0.0
03/09:30pm 9.0 6.8 5.4 78 1.6 ENE 6 7 3 4 1026.1 1026.1 0.0
03/09:00pm 8.7 6.6 6.0 83 1.2 NE 6 7 3 4 1026.2 1026.2 0.0
03/08:30pm 8.4 7.5 5.9 84 1.1 CALM 0 7 0 4 1026.2 1026.2 0.0
03/08:00pm 8.8 7.9 6.1 83 1.2 CALM 0 0 0 0 1026.2 1026.2 0.0
03/07:30pm 8.5 7.6 6.0 84 1.1 CALM 0 0 0 0 1026.2 1026.2 0.0
03/07:00pm 8.9 7.9 5.5 79 1.5 CALM 0 0 0 0 1026.2 1026.2 0.0

Other Formats:

Comma delimited format used in spreadsheet applications
http://www.bom.gov.au/fwo/IDS60801/IDS60801.95676.axf

JavaScript Object Notation format (JSON) in row-major order
http://www.bom.gov.au/fwo/IDS60801/IDS60801.95676.json